Impacts TAF Board
For situational awareness. Not to be used for flight planning purposes.
IDs:

KMDW - Chicago/Midway Intl, IL, US

Issued at 1925 UTC 19 May 2019
Updated at 2059 UTC 19 May 2019
Potential Impact None Slight Moderate High
Time<<20/09Z 20/10Z 20/11Z 20/12Z 20/13Z 20/14Z 20/15Z 20/16Z 20/17Z 20/18Z 20/19Z 20/20Z 20/21Z>>
Type PRVL PRVL PRVL PRVL PRVL PRVL PRVL PRVL PRVL PRVL PRVL PRVL PRVL
VIS >6 >6 >6 >6 >6 >6 >6 >6 >6 >6 >6 >6 >6
CIG 25 -- -- -- -- -- -- -- -- -- -- -- --
Cover BKN SCT SCT SCT SCT SCT SCT SCT SCT SCT SCT SCT SCT
FltCat MVFR VFR VFR VFR VFR VFR VFR VFR VFR VFR VFR VFR VFR
WX -- -- -- -- -- -- -- -- -- -- -- -- --
WDir 270 300 300 300 300 300 300 300 300 300 300 40 40
WSpd 17 12 12 12 12 12 12 12 12 12 12 10 10
WGst 25 -- -- -- -- -- -- -- -- -- -- -- --
Raw TAF
KMDW 191925Z 1919/2024 22020G30KT P6SM VCTS SCT050CB
  FM192030 25025G35KT P6SM SCT050
  FM200200 27017G25KT P6SM BKN025
  FM201000 30012KT P6SM SCT025
  FM202000 04010KT P6SM SCT035


METAR Board
Radar Display
Forecast Discussion
For situational awareness. Not to be used for flight planning purposes.